createdAt,value
2022-11-06T00:41:08.774Z,3.70
2022-11-06T00:46:05.511Z,3.80
2022-11-06T00:51:06.275Z,4.00
2022-11-06T00:56:08.507Z,3.90
2022-11-06T01:01:10.882Z,3.77
2022-11-06T01:06:07.691Z,3.63
2022-11-06T01:10:59.403Z,3.50
2022-11-06T01:15:51.003Z,3.70
2022-11-06T01:20:42.602Z,3.60
2022-11-06T01:25:34.194Z,3.57
2022-11-06T01:30:27.003Z,3.67
2022-11-06T01:35:18.582Z,3.10
2022-11-06T01:40:11.078Z,2.93
2022-11-06T01:45:16.619Z,3.10
2022-11-06T01:50:11.850Z,2.80
2022-11-06T01:55:22.798Z,2.53
2022-11-06T02:00:14.597Z,2.63
2022-11-06T02:05:06.562Z,2.60
2022-11-06T02:09:58.207Z,2.63
2022-11-06T02:15:00.727Z,2.57
2022-11-06T02:20:07.068Z,2.50
2022-11-06T02:25:39.011Z,2.60
2022-11-06T02:30:40.508Z,2.93
2022-11-06T02:35:42.945Z,2.23
2022-11-06T02:40:39.327Z,2.57
2022-11-06T02:45:37.203Z,2.37
2022-11-06T02:50:35.203Z,2.73
2022-11-06T02:55:44.057Z,2.00
2022-11-06T03:00:38.613Z,2.30
2022-11-06T03:05:37.029Z,2.57
2022-11-06T03:10:33.995Z,2.70
2022-11-06T03:15:39.720Z,2.30
2022-11-06T03:20:51.039Z,2.17
2022-11-06T03:25:54.332Z,2.30
2022-11-06T03:31:07.890Z,2.07
2022-11-06T03:36:12.489Z,2.13
2022-11-06T03:41:14.287Z,2.40
2022-11-06T03:46:11.479Z,2.30
2022-11-06T03:51:13.690Z,2.40
2022-11-06T03:56:22.895Z,2.73
2022-11-06T04:01:16.734Z,2.20
2022-11-06T04:06:20.911Z,2.00
2022-11-06T04:11:36.282Z,2.40
2022-11-06T04:16:53.707Z,2.30
2022-11-06T04:21:54.516Z,2.17
2022-11-06T04:27:20.376Z,2.03
2022-11-06T04:32:30.664Z,1.77
2022-11-06T04:37:29.261Z,1.73
2022-11-06T04:42:38.066Z,1.90
2022-11-06T04:47:30.541Z,1.70
2022-11-06T04:52:28.043Z,1.90
2022-11-06T04:57:19.749Z,1.90
2022-11-06T05:02:11.540Z,2.07
2022-11-06T05:07:03.316Z,1.93
2022-11-06T05:11:55.546Z,2.23
2022-11-06T05:16:47.138Z,1.90
2022-11-06T05:21:57.444Z,1.70
2022-11-06T05:26:49.970Z,1.53
2022-11-06T05:31:43.989Z,1.63
2022-11-06T05:36:35.648Z,1.50
2022-11-06T05:41:28.064Z,1.80
2022-11-06T05:46:42.863Z,1.67
2022-11-06T05:51:31.498Z,1.80
2022-11-06T05:56:23.133Z,1.70
2022-11-06T06:01:16.475Z,1.53
2022-11-06T06:06:08.144Z,1.43
2022-11-06T06:10:59.754Z,1.97
2022-11-06T06:15:52.501Z,1.67
2022-11-06T06:20:44.265Z,1.60
2022-11-06T06:25:35.858Z,2.10
2022-11-06T06:30:28.383Z,1.77
2022-11-06T06:35:20.057Z,1.67
2022-11-06T06:40:11.898Z,1.77
2022-11-06T06:45:03.676Z,1.73
2022-11-06T06:49:56.089Z,1.90
2022-11-06T06:54:47.658Z,1.40
2022-11-06T06:59:39.449Z,1.50
2022-11-06T07:04:31.029Z,1.53
2022-11-06T07:09:24.124Z,1.67
2022-11-06T07:14:15.765Z,1.90
2022-11-06T07:19:07.444Z,1.47
2022-11-06T07:23:59.068Z,1.40
2022-11-06T07:28:50.771Z,1.80
2022-11-06T07:33:42.377Z,1.60
2022-11-06T07:38:35.086Z,1.70
2022-11-06T07:43:27.699Z,1.77
2022-11-06T07:48:19.743Z,1.77
2022-11-06T07:53:11.970Z,1.97
2022-11-06T07:58:05.102Z,1.87
2022-11-06T08:02:56.977Z,1.53
2022-11-06T08:07:48.711Z,1.80
2022-11-06T08:12:40.612Z,1.83
2022-11-06T08:17:32.385Z,1.70
2022-11-06T08:22:23.964Z,1.60
2022-11-06T08:27:15.683Z,2.00
2022-11-06T08:32:07.410Z,2.00
2022-11-06T08:36:59.157Z,1.60
2022-11-06T08:41:50.791Z,2.00
2022-11-06T08:46:45.340Z,1.50
2022-11-06T08:51:39.390Z,2.10
2022-11-06T08:56:31.037Z,2.07
2022-11-06T09:01:24.086Z,2.20
2022-11-06T09:06:15.947Z,1.93
2022-11-06T09:11:08.474Z,2.07
2022-11-06T09:16:00.979Z,2.50
2022-11-06T09:20:57.173Z,2.30
2022-11-06T09:25:49.122Z,2.13
2022-11-06T09:30:40.801Z,2.43
2022-11-06T09:35:34.280Z,2.13
2022-11-06T09:40:31.422Z,2.80
2022-11-06T09:45:26.721Z,2.47
2022-11-06T09:50:23.865Z,2.17
2022-11-06T09:55:29.247Z,2.43
2022-11-06T10:00:21.379Z,2.73
2022-11-06T10:05:31.608Z,2.77
2022-11-06T10:10:30.704Z,2.90
2022-11-06T10:15:56.787Z,2.70
2022-11-06T10:21:07.180Z,2.40
2022-11-06T10:26:12.105Z,3.70
2022-11-06T10:31:25.682Z,2.43
2022-11-06T10:36:39.945Z,2.53
2022-11-06T10:41:35.315Z,2.53
2022-11-06T10:46:30.114Z,2.70
2022-11-06T10:51:46.175Z,2.53
2022-11-06T10:57:04.144Z,2.47
2022-11-06T11:01:56.190Z,2.47
2022-11-06T11:06:49.086Z,2.67
2022-11-06T11:11:49.042Z,2.90
2022-11-06T11:16:45.793Z,2.50
2022-11-06T11:21:38.731Z,2.33
2022-11-06T11:26:33.898Z,2.23
2022-11-06T11:31:31.636Z,2.57
2022-11-06T11:36:23.335Z,2.40
2022-11-06T11:41:21.144Z,2.23
2022-11-06T11:46:20.790Z,2.90
2022-11-06T11:51:15.726Z,2.47
2022-11-06T11:56:13.534Z,2.33
2022-11-06T12:01:07.768Z,2.10
2022-11-06T12:06:25.879Z,2.53
2022-11-06T12:11:24.566Z,2.00
2022-11-06T12:16:20.090Z,2.13
2022-11-06T12:21:21.955Z,2.07
2022-11-06T12:26:28.782Z,1.80
2022-11-06T12:31:56.099Z,1.97
2022-11-06T12:37:04.163Z,1.73
2022-11-06T12:41:56.910Z,1.60
2022-11-06T12:47:08.059Z,1.90
2022-11-06T12:52:05.581Z,1.70
2022-11-06T12:57:15.877Z,1.70
2022-11-06T13:02:48.576Z,2.10
2022-11-06T13:07:55.556Z,2.00
2022-11-06T13:12:56.722Z,1.90
2022-11-06T13:18:03.666Z,1.77
2022-11-06T13:23:10.914Z,2.00
2022-11-06T13:28:05.481Z,2.00
2022-11-06T13:33:13.721Z,2.10
2022-11-06T13:38:15.484Z,1.70
2022-11-06T13:43:10.452Z,1.33
2022-11-06T13:48:18.407Z,1.37
2022-11-06T13:53:23.507Z,2.07
2022-11-06T13:59:06.592Z,1.50
2022-11-06T14:04:29.272Z,1.67
2022-11-06T14:09:26.166Z,1.70
2022-11-06T14:14:22.242Z,1.47
2022-11-06T14:19:26.595Z,1.70
2022-11-06T14:24:27.754Z,1.60
2022-11-06T14:29:28.665Z,1.50
2022-11-06T14:34:28.861Z,1.60
2022-11-06T14:39:55.347Z,1.10
2022-11-06T14:44:49.935Z,1.30
2022-11-06T14:49:46.373Z,1.37
2022-11-06T14:54:40.799Z,1.37
2022-11-06T14:59:38.529Z,1.67
2022-11-06T15:04:33.209Z,1.30
2022-11-06T15:09:24.810Z,1.60
2022-11-06T15:14:16.422Z,1.73
2022-11-06T15:19:19.536Z,1.67
2022-11-06T15:24:31.000Z,1.60
2022-11-06T15:29:26.350Z,1.63
2022-11-06T15:34:30.536Z,1.60
2022-11-06T15:39:30.680Z,1.77
2022-11-06T15:44:24.267Z,1.80
2022-11-06T15:49:19.405Z,1.40
2022-11-06T15:54:14.591Z,2.20
2022-11-06T15:59:14.732Z,2.27
2022-11-06T16:13:54.625Z,2.10
2022-11-06T16:18:49.277Z,1.70
2022-11-06T16:23:49.126Z,2.00
2022-11-06T16:28:47.859Z,1.93
2022-11-06T16:33:40.419Z,1.97
2022-11-06T16:38:42.505Z,2.10
2022-11-06T16:43:34.495Z,2.13
2022-11-06T16:48:31.616Z,2.00
2022-11-06T16:53:27.513Z,2.50
2022-11-06T16:58:20.366Z,2.10
2022-11-06T17:03:23.339Z,2.80
2022-11-06T17:08:18.073Z,2.70
2022-11-06T17:13:20.158Z,2.40
2022-11-06T17:18:16.401Z,2.40
2022-11-06T17:23:15.778Z,2.90
2022-11-06T17:28:10.931Z,2.80
2022-11-06T17:33:02.535Z,2.60
2022-11-06T17:37:54.152Z,2.77
2022-11-06T17:42:45.784Z,3.43
2022-11-06T17:47:37.467Z,3.20
2022-11-06T17:52:29.790Z,2.90
2022-11-06T17:57:24.218Z,3.33
2022-11-06T18:02:34.969Z,3.30
2022-11-06T18:07:29.359Z,3.60
2022-11-06T18:12:24.093Z,3.10
2022-11-06T18:17:15.749Z,3.67
2022-11-06T18:22:07.352Z,3.47
2022-11-06T18:26:59.176Z,3.33
2022-11-06T18:31:50.799Z,3.30
2022-11-06T18:36:42.555Z,3.10
2022-11-06T18:41:34.855Z,3.30
2022-11-06T18:46:27.749Z,2.97
2022-11-06T18:51:34.040Z,3.13
2022-11-06T18:56:26.823Z,3.23
2022-11-06T19:01:19.167Z,3.30
2022-11-06T19:06:14.330Z,2.47
2022-11-06T19:11:08.185Z,2.73
2022-11-06T19:16:00.313Z,2.60
2022-11-06T19:20:51.940Z,2.37
2022-11-06T19:25:43.647Z,2.73
2022-11-06T19:30:36.055Z,2.20
2022-11-06T19:35:27.860Z,1.93
2022-11-06T19:40:20.098Z,2.13
2022-11-06T19:45:12.443Z,2.00
2022-11-06T19:50:05.172Z,2.10
2022-11-06T19:55:25.660Z,2.00
2022-11-06T20:00:11.460Z,1.90
2022-11-06T20:05:03.461Z,1.73
2022-11-06T20:09:56.325Z,2.13
2022-11-06T20:14:48.918Z,1.70
2022-11-06T20:19:41.609Z,1.83
2022-11-06T20:24:34.567Z,1.77
2022-11-06T20:29:28.339Z,1.77
2022-11-06T20:34:20.006Z,1.57
2022-11-06T20:39:11.862Z,1.50
2022-11-06T20:44:04.113Z,2.20
2022-11-06T20:48:58.353Z,1.97
2022-11-06T20:53:50.528Z,1.60
2022-11-06T20:58:42.943Z,1.80
2022-11-06T21:03:36.307Z,1.50
2022-11-06T21:08:28.077Z,1.97
2022-11-06T21:13:19.735Z,1.83
2022-11-06T21:18:11.554Z,1.60
2022-11-06T21:23:04.960Z,1.80
2022-11-06T21:27:56.710Z,1.70
2022-11-06T21:32:48.297Z,1.97
2022-11-06T21:37:39.907Z,1.70
2022-11-06T21:42:31.499Z,1.90
2022-11-06T21:47:23.472Z,2.03
2022-11-06T21:52:33.687Z,2.23
2022-11-06T21:57:25.353Z,1.30
2022-11-06T22:02:17.018Z,1.97
2022-11-06T22:07:08.675Z,1.33
2022-11-06T22:12:02.091Z,1.73
2022-11-06T22:16:53.723Z,1.80
2022-11-06T22:21:45.470Z,1.70
2022-11-06T22:26:37.766Z,1.57
2022-11-06T22:31:30.255Z,1.90
2022-11-06T22:36:23.108Z,1.37
2022-11-06T22:41:17.441Z,1.40
2022-11-06T22:46:12.968Z,1.57
2022-11-06T22:51:07.214Z,1.57
2022-11-06T22:55:59.739Z,1.30
2022-11-06T23:00:52.697Z,1.47
2022-11-06T23:05:44.406Z,1.40
2022-11-06T23:10:39.369Z,1.27
2022-11-06T23:15:31.922Z,1.30
2022-11-06T23:20:27.379Z,1.20
2022-11-06T23:25:20.113Z,1.50
2022-11-06T23:30:12.771Z,1.40
2022-11-06T23:35:10.355Z,1.40
2022-11-06T23:40:05.499Z,1.50
2022-11-06T23:45:16.836Z,1.50
2022-11-06T23:50:09.057Z,1.17
2022-11-06T23:55:03.724Z,1.50
2022-11-06T23:59:55.424Z,1.40
